sensor_id;sensor_type;location;lat;lon;timestamp;P1;durP1;ratioP1;P2;durP2;ratioP2
14088;SDS011;7120;52.890;6.040;2022-08-16T00:00:21;29.00;;;26.57;;
14088;SDS011;7120;52.890;6.040;2022-08-16T00:02:48;29.77;;;27.17;;
14088;SDS011;7120;52.890;6.040;2022-08-16T00:05:15;29.63;;;27.03;;
14088;SDS011;7120;52.890;6.040;2022-08-16T00:07:41;30.90;;;28.17;;
14088;SDS011;7120;52.890;6.040;2022-08-16T00:10:08;29.43;;;26.67;;
14088;SDS011;7120;52.890;6.040;2022-08-16T00:12:36;28.17;;;25.77;;
14088;SDS011;7120;52.890;6.040;2022-08-16T00:15:07;29.80;;;27.27;;
14088;SDS011;7120;52.890;6.040;2022-08-16T00:17:53;30.27;;;27.63;;
14088;SDS011;7120;52.890;6.040;2022-08-16T00:20:19;29.40;;;26.70;;
14088;SDS011;7120;52.890;6.040;2022-08-16T00:22:45;29.13;;;26.60;;
14088;SDS011;7120;52.890;6.040;2022-08-16T00:25:13;27.73;;;25.23;;
14088;SDS011;7120;52.890;6.040;2022-08-16T00:27:40;28.00;;;25.50;;
14088;SDS011;7120;52.890;6.040;2022-08-16T00:30:07;25.73;;;23.43;;
14088;SDS011;7120;52.890;6.040;2022-08-16T00:32:36;25.30;;;23.10;;
14088;SDS011;7120;52.890;6.040;2022-08-16T00:35:03;25.47;;;23.20;;
14088;SDS011;7120;52.890;6.040;2022-08-16T00:37:28;26.53;;;24.17;;
14088;SDS011;7120;52.890;6.040;2022-08-16T00:39:54;26.27;;;24.10;;
14088;SDS011;7120;52.890;6.040;2022-08-16T00:42:19;25.67;;;23.47;;
14088;SDS011;7120;52.890;6.040;2022-08-16T00:44:48;25.30;;;23.03;;
14088;SDS011;7120;52.890;6.040;2022-08-16T00:47:18;25.00;;;22.77;;
14088;SDS011;7120;52.890;6.040;2022-08-16T00:49:45;23.60;;;21.60;;
14088;SDS011;7120;52.890;6.040;2022-08-16T00:52:11;26.13;;;23.77;;
14088;SDS011;7120;52.890;6.040;2022-08-16T00:54:37;25.40;;;23.27;;
14088;SDS011;7120;52.890;6.040;2022-08-16T00:57:03;24.83;;;22.53;;
14088;SDS011;7120;52.890;6.040;2022-08-16T00:59:31;25.47;;;23.27;;
14088;SDS011;7120;52.890;6.040;2022-08-16T01:02:00;25.53;;;23.13;;
14088;SDS011;7120;52.890;6.040;2022-08-16T01:04:26;25.00;;;22.80;;
14088;SDS011;7120;52.890;6.040;2022-08-16T01:06:52;25.53;;;23.30;;
14088;SDS011;7120;52.890;6.040;2022-08-16T01:09:19;25.90;;;23.70;;
14088;SDS011;7120;52.890;6.040;2022-08-16T01:11:44;26.87;;;24.47;;
14088;SDS011;7120;52.890;6.040;2022-08-16T01:14:14;25.47;;;23.27;;
14088;SDS011;7120;52.890;6.040;2022-08-16T01:16:44;25.17;;;23.00;;
14088;SDS011;7120;52.890;6.040;2022-08-16T01:27:30;21.30;;;19.60;;
14088;SDS011;7120;52.890;6.040;2022-08-16T01:30:11;22.20;;;20.10;;
14088;SDS011;7120;52.890;6.040;2022-08-16T01:32:39;22.03;;;20.00;;
14088;SDS011;7120;52.890;6.040;2022-08-16T01:35:20;21.47;;;19.50;;
14088;SDS011;7120;52.890;6.040;2022-08-16T01:37:50;20.80;;;18.67;;
14088;SDS011;7120;52.890;6.040;2022-08-16T01:40:18;21.50;;;19.53;;
14088;SDS011;7120;52.890;6.040;2022-08-16T01:42:47;22.87;;;20.70;;
14088;SDS011;7120;52.890;6.040;2022-08-16T01:45:14;24.43;;;22.00;;
14088;SDS011;7120;52.890;6.040;2022-08-16T01:47:40;24.33;;;22.17;;
14088;SDS011;7120;52.890;6.040;2022-08-16T01:50:08;24.87;;;22.67;;
14088;SDS011;7120;52.890;6.040;2022-08-16T01:52:34;25.17;;;23.07;;
14088;SDS011;7120;52.890;6.040;2022-08-16T01:55:00;24.43;;;22.27;;
14088;SDS011;7120;52.890;6.040;2022-08-16T01:57:26;24.23;;;22.17;;
14088;SDS011;7120;52.890;6.040;2022-08-16T01:59:53;24.63;;;22.63;;
14088;SDS011;7120;52.890;6.040;2022-08-16T02:02:19;23.60;;;21.57;;
14088;SDS011;7120;52.890;6.040;2022-08-16T02:04:44;24.00;;;22.10;;
14088;SDS011;7120;52.890;6.040;2022-08-16T02:07:10;23.57;;;21.47;;
14088;SDS011;7120;52.890;6.040;2022-08-16T02:09:38;24.07;;;21.80;;
14088;SDS011;7120;52.890;6.040;2022-08-16T02:12:05;24.00;;;21.80;;
14088;SDS011;7120;52.890;6.040;2022-08-16T02:14:32;25.13;;;22.67;;
14088;SDS011;7120;52.890;6.040;2022-08-16T02:17:02;24.60;;;22.50;;
14088;SDS011;7120;52.890;6.040;2022-08-16T02:19:32;23.67;;;21.57;;
14088;SDS011;7120;52.890;6.040;2022-08-16T02:21:59;25.10;;;22.90;;
14088;SDS011;7120;52.890;6.040;2022-08-16T02:24:27;24.60;;;22.43;;
14088;SDS011;7120;52.890;6.040;2022-08-16T02:26:53;25.67;;;23.07;;
14088;SDS011;7120;52.890;6.040;2022-08-16T02:29:20;24.23;;;22.13;;
14088;SDS011;7120;52.890;6.040;2022-08-16T02:31:47;26.27;;;23.87;;
14088;SDS011;7120;52.890;6.040;2022-08-16T02:34:14;24.60;;;22.40;;
14088;SDS011;7120;52.890;6.040;2022-08-16T02:36:41;27.53;;;24.80;;
14088;SDS011;7120;52.890;6.040;2022-08-16T02:39:07;25.93;;;23.83;;
14088;SDS011;7120;52.890;6.040;2022-08-16T02:41:34;26.70;;;24.50;;
14088;SDS011;7120;52.890;6.040;2022-08-16T02:44:02;27.10;;;24.83;;
14088;SDS011;7120;52.890;6.040;2022-08-16T02:46:29;26.33;;;23.83;;
14088;SDS011;7120;52.890;6.040;2022-08-16T02:48:56;26.67;;;24.23;;
14088;SDS011;7120;52.890;6.040;2022-08-16T02:51:22;26.73;;;24.33;;
14088;SDS011;7120;52.890;6.040;2022-08-16T02:53:47;26.37;;;23.90;;
14088;SDS011;7120;52.890;6.040;2022-08-16T02:56:13;25.73;;;23.53;;
14088;SDS011;7120;52.890;6.040;2022-08-16T02:58:40;27.47;;;25.13;;
14088;SDS011;7120;52.890;6.040;2022-08-16T03:01:06;29.90;;;27.20;;
14088;SDS011;7120;52.890;6.040;2022-08-16T03:03:33;29.50;;;26.80;;
14088;SDS011;7120;52.890;6.040;2022-08-16T03:06:00;28.83;;;26.13;;
14088;SDS011;7120;52.890;6.040;2022-08-16T03:08:26;30.17;;;27.53;;
14088;SDS011;7120;52.890;6.040;2022-08-16T03:10:51;30.63;;;27.90;;
14088;SDS011;7120;52.890;6.040;2022-08-16T03:13:17;30.83;;;27.90;;
14088;SDS011;7120;52.890;6.040;2022-08-16T03:15:43;30.87;;;28.07;;
14088;SDS011;7120;52.890;6.040;2022-08-16T03:18:11;30.77;;;27.97;;
14088;SDS011;7120;52.890;6.040;2022-08-16T03:20:37;32.73;;;29.73;;
14088;SDS011;7120;52.890;6.040;2022-08-16T03:23:03;32.57;;;29.77;;
14088;SDS011;7120;52.890;6.040;2022-08-16T03:25:29;33.13;;;30.13;;
14088;SDS011;7120;52.890;6.040;2022-08-16T03:27:56;32.20;;;29.30;;
14088;SDS011;7120;52.890;6.040;2022-08-16T03:30:22;32.67;;;29.67;;
14088;SDS011;7120;52.890;6.040;2022-08-16T03:32:53;34.40;;;31.20;;
14088;SDS011;7120;52.890;6.040;2022-08-16T03:35:21;33.93;;;30.77;;
14088;SDS011;7120;52.890;6.040;2022-08-16T03:37:52;33.33;;;30.30;;
14088;SDS011;7120;52.890;6.040;2022-08-16T03:40:20;32.87;;;29.77;;
14088;SDS011;7120;52.890;6.040;2022-08-16T03:42:46;33.50;;;30.13;;
14088;SDS011;7120;52.890;6.040;2022-08-16T03:45:11;35.33;;;31.83;;
14088;SDS011;7120;52.890;6.040;2022-08-16T03:47:38;35.53;;;32.27;;
14088;SDS011;7120;52.890;6.040;2022-08-16T03:50:04;37.10;;;33.70;;
14088;SDS011;7120;52.890;6.040;2022-08-16T03:52:30;37.13;;;33.83;;
14088;SDS011;7120;52.890;6.040;2022-08-16T03:54:56;36.30;;;32.67;;
14088;SDS011;7120;52.890;6.040;2022-08-16T03:57:21;35.63;;;32.03;;
14088;SDS011;7120;52.890;6.040;2022-08-16T03:59:47;34.33;;;31.17;;
14088;SDS011;7120;52.890;6.040;2022-08-16T04:02:12;34.33;;;31.10;;
14088;SDS011;7120;52.890;6.040;2022-08-16T04:04:37;34.10;;;30.73;;
14088;SDS011;7120;52.890;6.040;2022-08-16T04:07:04;32.87;;;29.80;;
14088;SDS011;7120;52.890;6.040;2022-08-16T04:09:31;35.40;;;32.10;;
14088;SDS011;7120;52.890;6.040;2022-08-16T04:11:57;35.87;;;32.20;;
14088;SDS011;7120;52.890;6.040;2022-08-16T04:14:22;34.73;;;31.50;;
14088;SDS011;7120;52.890;6.040;2022-08-16T04:16:48;35.40;;;32.03;;
14088;SDS011;7120;52.890;6.040;2022-08-16T04:19:13;31.87;;;29.03;;
14088;SDS011;7120;52.890;6.040;2022-08-16T04:21:39;32.67;;;29.57;;
14088;SDS011;7120;52.890;6.040;2022-08-16T04:24:04;32.93;;;29.50;;
14088;SDS011;7120;52.890;6.040;2022-08-16T04:26:30;31.63;;;28.47;;
14088;SDS011;7120;52.890;6.040;2022-08-16T04:28:55;31.57;;;28.63;;
14088;SDS011;7120;52.890;6.040;2022-08-16T04:31:21;33.80;;;30.37;;
14088;SDS011;7120;52.890;6.040;2022-08-16T04:33:47;32.23;;;29.33;;
14088;SDS011;7120;52.890;6.040;2022-08-16T04:36:13;32.87;;;29.67;;
14088;SDS011;7120;52.890;6.040;2022-08-16T04:38:38;34.33;;;31.13;;
14088;SDS011;7120;52.890;6.040;2022-08-16T04:41:03;35.00;;;31.50;;
14088;SDS011;7120;52.890;6.040;2022-08-16T04:43:29;36.00;;;32.23;;
14088;SDS011;7120;52.890;6.040;2022-08-16T04:45:54;34.60;;;31.30;;
14088;SDS011;7120;52.890;6.040;2022-08-16T04:48:20;35.33;;;31.80;;
14088;SDS011;7120;52.890;6.040;2022-08-16T04:50:45;36.73;;;33.17;;
14088;SDS011;7120;52.890;6.040;2022-08-16T04:53:13;35.63;;;32.33;;
14088;SDS011;7120;52.890;6.040;2022-08-16T04:55:38;36.43;;;32.87;;
14088;SDS011;7120;52.890;6.040;2022-08-16T04:58:04;34.93;;;31.73;;
14088;SDS011;7120;52.890;6.040;2022-08-16T05:00:31;34.40;;;31.00;;
14088;SDS011;7120;52.890;6.040;2022-08-16T05:02:59;32.40;;;29.20;;
14088;SDS011;7120;52.890;6.040;2022-08-16T05:05:35;31.40;;;28.27;;
14088;SDS011;7120;52.890;6.040;2022-08-16T05:08:03;31.53;;;28.60;;
14088;SDS011;7120;52.890;6.040;2022-08-16T05:10:30;32.23;;;29.07;;
14088;SDS011;7120;52.890;6.040;2022-08-16T05:12:59;33.90;;;30.60;;
14088;SDS011;7120;52.890;6.040;2022-08-16T05:15:26;31.03;;;28.07;;
14088;SDS011;7120;52.890;6.040;2022-08-16T05:17:52;30.80;;;27.90;;
14088;SDS011;7120;52.890;6.040;2022-08-16T05:20:18;31.93;;;29.03;;
14088;SDS011;7120;52.890;6.040;2022-08-16T05:22:44;31.23;;;28.17;;
14088;SDS011;7120;52.890;6.040;2022-08-16T05:25:10;31.90;;;28.63;;
14088;SDS011;7120;52.890;6.040;2022-08-16T05:27:36;32.33;;;29.27;;
14088;SDS011;7120;52.890;6.040;2022-08-16T05:30:03;30.10;;;27.40;;
14088;SDS011;7120;52.890;6.040;2022-08-16T05:32:31;31.67;;;28.83;;
14088;SDS011;7120;52.890;6.040;2022-08-16T05:34:57;31.77;;;28.83;;
14088;SDS011;7120;52.890;6.040;2022-08-16T05:37:22;30.80;;;28.00;;
14088;SDS011;7120;52.890;6.040;2022-08-16T05:39:48;30.30;;;27.60;;
14088;SDS011;7120;52.890;6.040;2022-08-16T05:42:15;28.93;;;26.40;;
14088;SDS011;7120;52.890;6.040;2022-08-16T05:44:41;29.67;;;27.00;;
14088;SDS011;7120;52.890;6.040;2022-08-16T05:47:06;30.47;;;27.67;;
14088;SDS011;7120;52.890;6.040;2022-08-16T05:49:31;29.83;;;27.23;;
14088;SDS011;7120;52.890;6.040;2022-08-16T05:51:57;30.10;;;27.27;;
14088;SDS011;7120;52.890;6.040;2022-08-16T05:54:24;30.87;;;27.77;;
14088;SDS011;7120;52.890;6.040;2022-08-16T05:56:51;30.80;;;27.80;;
14088;SDS011;7120;52.890;6.040;2022-08-16T05:59:18;29.57;;;26.93;;
14088;SDS011;7120;52.890;6.040;2022-08-16T06:01:44;29.30;;;26.53;;
14088;SDS011;7120;52.890;6.040;2022-08-16T06:04:11;28.30;;;25.53;;
14088;SDS011;7120;52.890;6.040;2022-08-16T06:06:38;27.53;;;25.03;;
14088;SDS011;7120;52.890;6.040;2022-08-16T06:09:04;27.00;;;24.70;;
14088;SDS011;7120;52.890;6.040;2022-08-16T06:11:29;27.47;;;24.93;;
14088;SDS011;7120;52.890;6.040;2022-08-16T06:13:55;27.70;;;25.20;;
14088;SDS011;7120;52.890;6.040;2022-08-16T06:16:22;27.70;;;25.00;;
14088;SDS011;7120;52.890;6.040;2022-08-16T06:18:48;27.37;;;24.87;;
14088;SDS011;7120;52.890;6.040;2022-08-16T06:21:13;28.93;;;26.17;;
14088;SDS011;7120;52.890;6.040;2022-08-16T06:23:39;29.47;;;26.87;;
14088;SDS011;7120;52.890;6.040;2022-08-16T06:26:05;27.67;;;25.27;;
14088;SDS011;7120;52.890;6.040;2022-08-16T06:28:31;28.13;;;25.57;;
14088;SDS011;7120;52.890;6.040;2022-08-16T06:30:58;27.97;;;25.47;;
14088;SDS011;7120;52.890;6.040;2022-08-16T06:33:23;27.63;;;25.27;;
14088;SDS011;7120;52.890;6.040;2022-08-16T06:35:49;27.93;;;25.33;;
14088;SDS011;7120;52.890;6.040;2022-08-16T06:38:16;26.83;;;24.50;;
14088;SDS011;7120;52.890;6.040;2022-08-16T06:40:42;25.57;;;23.27;;
14088;SDS011;7120;52.890;6.040;2022-08-16T06:43:07;27.43;;;24.93;;
14088;SDS011;7120;52.890;6.040;2022-08-16T06:45:33;27.27;;;24.67;;
14088;SDS011;7120;52.890;6.040;2022-08-16T06:48:02;27.47;;;24.97;;
14088;SDS011;7120;52.890;6.040;2022-08-16T06:50:31;25.40;;;23.10;;
14088;SDS011;7120;52.890;6.040;2022-08-16T06:52:57;26.47;;;24.27;;
14088;SDS011;7120;52.890;6.040;2022-08-16T06:55:23;27.63;;;25.07;;
14088;SDS011;7120;52.890;6.040;2022-08-16T06:57:52;26.17;;;23.87;;
14088;SDS011;7120;52.890;6.040;2022-08-16T07:00:18;26.90;;;24.47;;
14088;SDS011;7120;52.890;6.040;2022-08-16T07:02:43;26.10;;;23.97;;
14088;SDS011;7120;52.890;6.040;2022-08-16T07:05:10;26.27;;;23.93;;
14088;SDS011;7120;52.890;6.040;2022-08-16T07:07:36;25.47;;;23.27;;
14088;SDS011;7120;52.890;6.040;2022-08-16T07:10:04;24.40;;;22.40;;
14088;SDS011;7120;52.890;6.040;2022-08-16T07:12:31;26.43;;;23.83;;
14088;SDS011;7120;52.890;6.040;2022-08-16T07:14:57;27.10;;;24.70;;
14088;SDS011;7120;52.890;6.040;2022-08-16T07:17:24;25.77;;;23.30;;
14088;SDS011;7120;52.890;6.040;2022-08-16T07:19:50;26.30;;;23.57;;
14088;SDS011;7120;52.890;6.040;2022-08-16T07:22:17;26.13;;;23.83;;
14088;SDS011;7120;52.890;6.040;2022-08-16T07:24:43;25.73;;;23.50;;
14088;SDS011;7120;52.890;6.040;2022-08-16T07:27:09;25.70;;;23.33;;
14088;SDS011;7120;52.890;6.040;2022-08-16T07:29:35;26.93;;;24.53;;
14088;SDS011;7120;52.890;6.040;2022-08-16T07:32:01;27.63;;;25.13;;
14088;SDS011;7120;52.890;6.040;2022-08-16T07:34:27;27.00;;;24.40;;
14088;SDS011;7120;52.890;6.040;2022-08-16T07:36:52;26.50;;;24.37;;
14088;SDS011;7120;52.890;6.040;2022-08-16T07:39:18;26.70;;;24.30;;
14088;SDS011;7120;52.890;6.040;2022-08-16T07:41:43;28.33;;;25.83;;
14088;SDS011;7120;52.890;6.040;2022-08-16T07:44:09;25.70;;;23.37;;
14088;SDS011;7120;52.890;6.040;2022-08-16T07:46:34;28.27;;;25.87;;
14088;SDS011;7120;52.890;6.040;2022-08-16T07:49:00;25.67;;;23.40;;
14088;SDS011;7120;52.890;6.040;2022-08-16T07:51:26;27.30;;;24.80;;
14088;SDS011;7120;52.890;6.040;2022-08-16T07:53:51;26.53;;;24.37;;
14088;SDS011;7120;52.890;6.040;2022-08-16T07:56:17;27.43;;;25.03;;
14088;SDS011;7120;52.890;6.040;2022-08-16T07:58:43;28.43;;;25.77;;
14088;SDS011;7120;52.890;6.040;2022-08-16T08:01:09;26.83;;;24.37;;
14088;SDS011;7120;52.890;6.040;2022-08-16T08:03:35;25.63;;;23.33;;
14088;SDS011;7120;52.890;6.040;2022-08-16T08:06:00;28.60;;;25.67;;
14088;SDS011;7120;52.890;6.040;2022-08-16T08:08:27;25.47;;;23.37;;
14088;SDS011;7120;52.890;6.040;2022-08-16T08:10:53;27.37;;;24.77;;
14088;SDS011;7120;52.890;6.040;2022-08-16T08:13:18;27.23;;;24.83;;
14088;SDS011;7120;52.890;6.040;2022-08-16T08:15:43;29.13;;;26.23;;
14088;SDS011;7120;52.890;6.040;2022-08-16T08:18:11;27.63;;;25.13;;
14088;SDS011;7120;52.890;6.040;2022-08-16T08:20:37;25.57;;;23.30;;
14088;SDS011;7120;52.890;6.040;2022-08-16T08:23:09;26.40;;;24.10;;
14088;SDS011;7120;52.890;6.040;2022-08-16T08:25:37;26.52;;;24.23;;
14088;SDS011;7120;52.890;6.040;2022-08-16T08:28:03;26.80;;;24.50;;
14088;SDS011;7120;52.890;6.040;2022-08-16T08:30:30;23.90;;;21.80;;
14088;SDS011;7120;52.890;6.040;2022-08-16T08:32:57;23.05;;;20.95;;
14088;SDS011;7120;52.890;6.040;2022-08-16T08:35:22;25.80;;;23.38;;
14088;SDS011;7120;52.890;6.040;2022-08-16T08:37:48;24.77;;;22.52;;
14088;SDS011;7120;52.890;6.040;2022-08-16T08:40:13;22.80;;;20.67;;
14088;SDS011;7120;52.890;6.040;2022-08-16T08:42:38;24.75;;;22.50;;
14088;SDS011;7120;52.890;6.040;2022-08-16T08:45:07;25.92;;;23.40;;
14088;SDS011;7120;52.890;6.040;2022-08-16T08:47:34;23.15;;;21.05;;
14088;SDS011;7120;52.890;6.040;2022-08-16T08:50:00;24.20;;;22.23;;
14088;SDS011;7120;52.890;6.040;2022-08-16T08:52:26;21.83;;;19.80;;
14088;SDS011;7120;52.890;6.040;2022-08-16T08:54:52;25.00;;;22.58;;
14088;SDS011;7120;52.890;6.040;2022-08-16T08:57:17;20.58;;;18.88;;
14088;SDS011;7120;52.890;6.040;2022-08-16T08:59:43;22.92;;;21.00;;
14088;SDS011;7120;52.890;6.040;2022-08-16T09:02:09;21.90;;;19.88;;
14088;SDS011;7120;52.890;6.040;2022-08-16T09:04:35;18.40;;;16.90;;
14088;SDS011;7120;52.890;6.040;2022-08-16T09:07:00;20.75;;;18.80;;
14088;SDS011;7120;52.890;6.040;2022-08-16T09:09:27;21.30;;;19.40;;
14088;SDS011;7120;52.890;6.040;2022-08-16T09:11:54;20.13;;;18.45;;
14088;SDS011;7120;52.890;6.040;2022-08-16T09:14:21;19.38;;;17.65;;
14088;SDS011;7120;52.890;6.040;2022-08-16T09:16:46;20.25;;;18.67;;
14088;SDS011;7120;52.890;6.040;2022-08-16T09:19:11;19.42;;;17.73;;
14088;SDS011;7120;52.890;6.040;2022-08-16T09:21:37;21.50;;;19.48;;
14088;SDS011;7120;52.890;6.040;2022-08-16T09:24:03;22.27;;;20.38;;
14088;SDS011;7120;52.890;6.040;2022-08-16T09:26:29;20.48;;;18.77;;
14088;SDS011;7120;52.890;6.040;2022-08-16T09:28:54;19.60;;;17.75;;
14088;SDS011;7120;52.890;6.040;2022-08-16T09:31:20;21.85;;;20.02;;
14088;SDS011;7120;52.890;6.040;2022-08-16T09:33:45;21.55;;;19.60;;
14088;SDS011;7120;52.890;6.040;2022-08-16T09:36:12;20.17;;;18.27;;
14088;SDS011;7120;52.890;6.040;2022-08-16T09:38:37;20.25;;;18.17;;
14088;SDS011;7120;52.890;6.040;2022-08-16T09:41:04;16.92;;;15.43;;
14088;SDS011;7120;52.890;6.040;2022-08-16T09:43:31;17.05;;;15.55;;
14088;SDS011;7120;52.890;6.040;2022-08-16T09:45:58;19.95;;;18.25;;
14088;SDS011;7120;52.890;6.040;2022-08-16T09:48:24;16.38;;;15.18;;
14088;SDS011;7120;52.890;6.040;2022-08-16T09:50:50;15.50;;;14.00;;
14088;SDS011;7120;52.890;6.040;2022-08-16T09:53:17;15.75;;;14.38;;
14088;SDS011;7120;52.890;6.040;2022-08-16T09:55:47;13.75;;;12.43;;
14088;SDS011;7120;52.890;6.040;2022-08-16T09:58:15;14.13;;;11.77;;
14088;SDS011;7120;52.890;6.040;2022-08-16T10:00:41;14.27;;;12.88;;
14088;SDS011;7120;52.890;6.040;2022-08-16T10:03:07;10.93;;;9.90;;
14088;SDS011;7120;52.890;6.040;2022-08-16T10:05:32;10.82;;;9.93;;
14088;SDS011;7120;52.890;6.040;2022-08-16T10:08:01;12.00;;;10.90;;
14088;SDS011;7120;52.890;6.040;2022-08-16T10:10:31;12.68;;;11.68;;
14088;SDS011;7120;52.890;6.040;2022-08-16T10:12:58;12.52;;;11.43;;
14088;SDS011;7120;52.890;6.040;2022-08-16T10:15:36;12.73;;;11.60;;
14088;SDS011;7120;52.890;6.040;2022-08-16T10:18:02;13.10;;;11.80;;
14088;SDS011;7120;52.890;6.040;2022-08-16T10:20:32;13.70;;;12.60;;
14088;SDS011;7120;52.890;6.040;2022-08-16T10:23:00;13.25;;;11.48;;
14088;SDS011;7120;52.890;6.040;2022-08-16T10:25:27;10.68;;;9.55;;
14088;SDS011;7120;52.890;6.040;2022-08-16T10:27:52;12.10;;;10.98;;
14088;SDS011;7120;52.890;6.040;2022-08-16T10:30:17;11.93;;;10.57;;
14088;SDS011;7120;52.890;6.040;2022-08-16T10:32:43;11.13;;;10.10;;
14088;SDS011;7120;52.890;6.040;2022-08-16T10:35:09;12.20;;;11.10;;
14088;SDS011;7120;52.890;6.040;2022-08-16T10:37:34;14.13;;;13.02;;
14088;SDS011;7120;52.890;6.040;2022-08-16T10:39:59;12.20;;;11.13;;
14088;SDS011;7120;52.890;6.040;2022-08-16T10:42:25;11.20;;;10.18;;
14088;SDS011;7120;52.890;6.040;2022-08-16T10:44:51;10.40;;;9.48;;
14088;SDS011;7120;52.890;6.040;2022-08-16T10:47:17;10.93;;;9.68;;
14088;SDS011;7120;52.890;6.040;2022-08-16T10:49:42;12.07;;;11.07;;
14088;SDS011;7120;52.890;6.040;2022-08-16T10:52:07;9.27;;;8.48;;
14088;SDS011;7120;52.890;6.040;2022-08-16T10:54:33;7.57;;;6.97;;
14088;SDS011;7120;52.890;6.040;2022-08-16T10:56:59;6.50;;;5.95;;
14088;SDS011;7120;52.890;6.040;2022-08-16T10:59:27;6.78;;;6.07;;
14088;SDS011;7120;52.890;6.040;2022-08-16T11:01:55;8.50;;;7.43;;
14088;SDS011;7120;52.890;6.040;2022-08-16T11:04:21;8.00;;;7.28;;
14088;SDS011;7120;52.890;6.040;2022-08-16T11:06:46;6.10;;;5.60;;
14088;SDS011;7120;52.890;6.040;2022-08-16T11:09:12;6.47;;;5.78;;
14088;SDS011;7120;52.890;6.040;2022-08-16T11:11:37;7.53;;;6.88;;
14088;SDS011;7120;52.890;6.040;2022-08-16T11:14:02;7.22;;;5.82;;
14088;SDS011;7120;52.890;6.040;2022-08-16T11:16:28;7.47;;;6.88;;
14088;SDS011;7120;52.890;6.040;2022-08-16T11:18:56;7.03;;;6.30;;
14088;SDS011;7120;52.890;6.040;2022-08-16T11:21:22;6.85;;;6.28;;
14088;SDS011;7120;52.890;6.040;2022-08-16T11:23:50;10.27;;;6.90;;
14088;SDS011;7120;52.890;6.040;2022-08-16T11:26:16;6.07;;;5.47;;
14088;SDS011;7120;52.890;6.040;2022-08-16T11:28:41;7.13;;;5.93;;
14088;SDS011;7120;52.890;6.040;2022-08-16T11:31:07;5.70;;;5.22;;
14088;SDS011;7120;52.890;6.040;2022-08-16T11:33:33;7.00;;;5.88;;
14088;SDS011;7120;52.890;6.040;2022-08-16T11:35:58;6.70;;;5.95;;
14088;SDS011;7120;52.890;6.040;2022-08-16T11:38:24;6.45;;;5.85;;
14088;SDS011;7120;52.890;6.040;2022-08-16T11:40:50;7.18;;;6.57;;
14088;SDS011;7120;52.890;6.040;2022-08-16T11:43:30;7.18;;;6.47;;
14088;SDS011;7120;52.890;6.040;2022-08-16T11:46:00;7.88;;;7.15;;
14088;SDS011;7120;52.890;6.040;2022-08-16T11:48:29;10.95;;;7.70;;
14088;SDS011;7120;52.890;6.040;2022-08-16T11:50:57;8.77;;;7.90;;
14088;SDS011;7120;52.890;6.040;2022-08-16T11:53:26;7.47;;;6.80;;
14088;SDS011;7120;52.890;6.040;2022-08-16T11:55:53;7.30;;;6.70;;
14088;SDS011;7120;52.890;6.040;2022-08-16T11:58:20;8.75;;;7.47;;
14088;SDS011;7120;52.890;6.040;2022-08-16T12:00:47;7.68;;;6.97;;
14088;SDS011;7120;52.890;6.040;2022-08-16T12:03:14;11.25;;;6.80;;
14088;SDS011;7120;52.890;6.040;2022-08-16T12:05:42;9.23;;;8.32;;
14088;SDS011;7120;52.890;6.040;2022-08-16T12:08:09;7.40;;;6.70;;
14088;SDS011;7120;52.890;6.040;2022-08-16T12:10:35;7.50;;;6.90;;
14088;SDS011;7120;52.890;6.040;2022-08-16T12:13:03;8.10;;;6.28;;
14088;SDS011;7120;52.890;6.040;2022-08-16T12:15:30;9.38;;;7.30;;
14088;SDS011;7120;52.890;6.040;2022-08-16T12:17:56;8.48;;;7.68;;
14088;SDS011;7120;52.890;6.040;2022-08-16T12:20:24;9.88;;;8.18;;
14088;SDS011;7120;52.890;6.040;2022-08-16T12:22:54;9.43;;;8.57;;
14088;SDS011;7120;52.890;6.040;2022-08-16T12:25:20;9.45;;;8.48;;
14088;SDS011;7120;52.890;6.040;2022-08-16T12:27:48;8.90;;;8.10;;
14088;SDS011;7120;52.890;6.040;2022-08-16T12:30:15;12.30;;;11.05;;
14088;SDS011;7120;52.890;6.040;2022-08-16T12:32:42;11.60;;;10.60;;
14088;SDS011;7120;52.890;6.040;2022-08-16T12:35:09;11.23;;;10.23;;
14088;SDS011;7120;52.890;6.040;2022-08-16T12:37:37;19.55;;;17.95;;
14088;SDS011;7120;52.890;6.040;2022-08-16T12:40:03;17.63;;;16.10;;
14088;SDS011;7120;52.890;6.040;2022-08-16T12:42:31;16.00;;;14.43;;
14088;SDS011;7120;52.890;6.040;2022-08-16T12:44:57;18.38;;;16.77;;
14088;SDS011;7120;52.890;6.040;2022-08-16T12:47:22;18.77;;;17.15;;
14088;SDS011;7120;52.890;6.040;2022-08-16T12:50:06;17.70;;;16.00;;
14088;SDS011;7120;52.890;6.040;2022-08-16T12:52:32;20.80;;;19.00;;
14088;SDS011;7120;52.890;6.040;2022-08-16T12:54:58;20.15;;;18.50;;
14088;SDS011;7120;52.890;6.040;2022-08-16T12:57:23;19.42;;;17.73;;
14088;SDS011;7120;52.890;6.040;2022-08-16T12:59:49;18.38;;;16.73;;
14088;SDS011;7120;52.890;6.040;2022-08-16T13:02:16;18.40;;;16.48;;
14088;SDS011;7120;52.890;6.040;2022-08-16T13:04:41;17.10;;;15.55;;
14088;SDS011;7120;52.890;6.040;2022-08-16T13:07:06;19.20;;;17.52;;
14088;SDS011;7120;52.890;6.040;2022-08-16T13:09:32;17.02;;;15.35;;
14088;SDS011;7120;52.890;6.040;2022-08-16T13:12:03;18.30;;;16.55;;
14088;SDS011;7120;52.890;6.040;2022-08-16T13:14:47;16.02;;;14.07;;
14088;SDS011;7120;52.890;6.040;2022-08-16T13:17:15;15.70;;;14.30;;
14088;SDS011;7120;52.890;6.040;2022-08-16T13:19:43;16.17;;;14.50;;
14088;SDS011;7120;52.890;6.040;2022-08-16T13:22:09;14.90;;;13.60;;
14088;SDS011;7120;52.890;6.040;2022-08-16T13:24:35;14.93;;;13.32;;
14088;SDS011;7120;52.890;6.040;2022-08-16T13:27:00;16.13;;;14.45;;
14088;SDS011;7120;52.890;6.040;2022-08-16T13:29:26;16.67;;;15.07;;
14088;SDS011;7120;52.890;6.040;2022-08-16T13:31:51;15.60;;;14.07;;
14088;SDS011;7120;52.890;6.040;2022-08-16T13:34:17;17.10;;;15.60;;
14088;SDS011;7120;52.890;6.040;2022-08-16T13:36:42;17.08;;;15.48;;
14088;SDS011;7120;52.890;6.040;2022-08-16T13:39:08;16.70;;;15.18;;
14088;SDS011;7120;52.890;6.040;2022-08-16T13:41:33;15.13;;;13.77;;
14088;SDS011;7120;52.890;6.040;2022-08-16T13:44:00;15.80;;;14.27;;
14088;SDS011;7120;52.890;6.040;2022-08-16T13:46:26;16.75;;;15.15;;
14088;SDS011;7120;52.890;6.040;2022-08-16T13:48:53;18.33;;;16.83;;
14088;SDS011;7120;52.890;6.040;2022-08-16T13:51:18;15.68;;;14.13;;
14088;SDS011;7120;52.890;6.040;2022-08-16T13:53:45;17.00;;;15.57;;
14088;SDS011;7120;52.890;6.040;2022-08-16T13:56:12;16.85;;;15.45;;
14088;SDS011;7120;52.890;6.040;2022-08-16T13:58:37;13.73;;;12.32;;
14088;SDS011;7120;52.890;6.040;2022-08-16T14:01:03;13.73;;;12.32;;
14088;SDS011;7120;52.890;6.040;2022-08-16T14:03:29;13.68;;;12.32;;
14088;SDS011;7120;52.890;6.040;2022-08-16T14:05:54;13.52;;;12.38;;
14088;SDS011;7120;52.890;6.040;2022-08-16T14:08:19;13.60;;;12.32;;
14088;SDS011;7120;52.890;6.040;2022-08-16T14:10:45;12.20;;;11.07;;
14088;SDS011;7120;52.890;6.040;2022-08-16T14:13:11;13.52;;;12.32;;
14088;SDS011;7120;52.890;6.040;2022-08-16T14:15:36;12.82;;;11.48;;
14088;SDS011;7120;52.890;6.040;2022-08-16T14:18:02;15.90;;;14.40;;
14088;SDS011;7120;52.890;6.040;2022-08-16T14:20:27;15.10;;;13.60;;
14088;SDS011;7120;52.890;6.040;2022-08-16T14:22:52;14.75;;;13.50;;
14088;SDS011;7120;52.890;6.040;2022-08-16T14:25:23;16.33;;;14.65;;
14088;SDS011;7120;52.890;6.040;2022-08-16T14:27:49;15.02;;;12.02;;
14088;SDS011;7120;52.890;6.040;2022-08-16T14:30:16;15.20;;;13.90;;
14088;SDS011;7120;52.890;6.040;2022-08-16T14:32:43;16.02;;;13.98;;
14088;SDS011;7120;52.890;6.040;2022-08-16T14:35:11;14.75;;;13.32;;
14088;SDS011;7120;52.890;6.040;2022-08-16T14:37:39;16.08;;;14.48;;
14088;SDS011;7120;52.890;6.040;2022-08-16T14:40:06;15.50;;;14.07;;
14088;SDS011;7120;52.890;6.040;2022-08-16T14:42:34;13.48;;;12.13;;